Ninde, Virginia
Current Conditions -  °F | °C
As of 8:56 PM on Sunday 21 Dec 2014 (Local Time) from KNYG Reporting Station
Clear Clear  
Wind Chill: 32°   Ceiling: Unl
Heat Index: 32°   Visibility: 10mi
Dew Point: 26°   Wind: 0mph
Humidity: 79%   Direction: NA
Pressure: 30.34"   Gusts: NA
Location:  38.27°N, 77.06°W
Report Text: KNYG 220156Z AUTO 00000KT 10SM CLR 00/M03 A3034 RMK AO2 SLP275 T00001033 $
Loading
Personal Weather Stations






























Interactive Weather Map New forecast layout! Learn more

10-Day Weather Forecast

Advertisements
Track Severe Weather on mobile